createdAt,value
2019-02-17T00:00:33.385Z,73.05
2019-02-17T00:03:02.374Z,64.50
2019-02-17T00:05:31.225Z,64.42
2019-02-17T00:08:00.018Z,63.38
2019-02-17T00:10:28.749Z,61.13
2019-02-17T00:12:57.522Z,65.97
2019-02-17T00:15:26.376Z,71.20
2019-02-17T00:17:55.185Z,77.10
2019-02-17T00:20:23.963Z,79.95
2019-02-17T00:22:52.772Z,76.20
2019-02-17T00:25:21.608Z,78.22
2019-02-17T00:27:50.906Z,74.00
2019-02-17T00:30:19.622Z,85.22
2019-02-17T00:32:48.351Z,90.62
2019-02-17T00:35:17.182Z,88.67
2019-02-17T00:37:45.968Z,91.08
2019-02-17T00:40:14.756Z,92.88
2019-02-17T00:42:43.490Z,88.07
2019-02-17T00:45:12.313Z,91.70
2019-02-17T00:47:41.262Z,93.78
2019-02-17T00:50:10.132Z,97.37
2019-02-17T00:52:38.997Z,96.10
2019-02-17T00:55:07.753Z,94.65
2019-02-17T00:57:36.514Z,85.92
2019-02-17T01:00:05.805Z,73.67
2019-02-17T01:02:34.558Z,65.47
2019-02-17T01:05:03.292Z,61.98
2019-02-17T01:07:31.998Z,63.05
2019-02-17T01:10:00.841Z,68.65
2019-02-17T01:12:29.586Z,67.75
2019-02-17T01:14:58.449Z,62.08
2019-02-17T01:17:27.242Z,60.17
2019-02-17T01:19:56.042Z,62.40
2019-02-17T01:22:24.755Z,62.90
2019-02-17T01:24:53.462Z,63.38
2019-02-17T01:27:22.456Z,62.23
2019-02-17T01:29:51.166Z,61.48
2019-02-17T01:32:19.970Z,63.60
2019-02-17T01:34:48.698Z,63.15
2019-02-17T01:37:17.397Z,59.18
2019-02-17T01:39:53.189Z,60.70
2019-02-17T01:42:21.919Z,56.92
2019-02-17T01:44:50.678Z,58.65
2019-02-17T01:47:19.493Z,57.33
2019-02-17T01:49:48.193Z,58.55
2019-02-17T01:52:16.950Z,56.00
2019-02-17T01:54:45.692Z,49.90
2019-02-17T01:57:14.418Z,56.02
2019-02-17T01:59:43.258Z,53.17
2019-02-17T02:02:12.072Z,55.63
2019-02-17T02:04:40.825Z,54.33
2019-02-17T02:07:09.638Z,52.20
2019-02-17T02:09:38.459Z,52.35
2019-02-17T02:12:07.313Z,55.20
2019-02-17T02:14:36.052Z,52.38
2019-02-17T02:17:04.801Z,52.93
2019-02-17T02:19:33.754Z,52.75
2019-02-17T02:22:02.594Z,52.93
2019-02-17T02:24:31.414Z,53.55
2019-02-17T02:27:00.180Z,49.98
2019-02-17T02:29:29.078Z,47.58
2019-02-17T02:31:57.846Z,45.67
2019-02-17T02:34:26.653Z,42.23
2019-02-17T02:36:55.470Z,40.80
2019-02-17T02:39:24.223Z,38.45
2019-02-17T02:41:53.016Z,38.33
2019-02-17T02:44:21.729Z,36.63
2019-02-17T02:46:50.695Z,36.23
2019-02-17T02:49:19.426Z,36.83
2019-02-17T02:51:48.245Z,37.05
2019-02-17T02:54:17.047Z,36.15
2019-02-17T02:56:45.787Z,34.40
2019-02-17T02:59:14.515Z,36.00
2019-02-17T03:01:43.248Z,36.35
2019-02-17T03:04:12.046Z,35.70
2019-02-17T03:06:53.568Z,36.25
2019-02-17T03:09:22.337Z,36.42
2019-02-17T03:11:52.176Z,36.17
2019-02-17T03:14:20.968Z,34.25
2019-02-17T03:16:49.718Z,33.38
2019-02-17T03:19:18.519Z,34.33
2019-02-17T03:21:47.370Z,32.63
2019-02-17T03:24:16.115Z,32.93
2019-02-17T03:26:44.832Z,33.85
2019-02-17T03:29:13.549Z,34.15
2019-02-17T03:31:42.400Z,34.67
2019-02-17T03:34:11.277Z,35.05
2019-02-17T03:36:40.126Z,31.62
2019-02-17T03:39:09.125Z,34.05
2019-02-17T03:41:37.965Z,34.05
2019-02-17T03:44:07.542Z,33.95
2019-02-17T03:46:36.259Z,34.18
2019-02-17T03:49:04.963Z,32.20
2019-02-17T03:51:33.685Z,35.68
2019-02-17T03:54:02.413Z,33.70
2019-02-17T03:56:31.225Z,35.15
2019-02-17T03:58:59.943Z,35.05
2019-02-17T04:01:28.673Z,35.25
2019-02-17T04:03:57.398Z,32.60
2019-02-17T04:06:26.193Z,33.70
2019-02-17T04:08:54.939Z,35.00
2019-02-17T04:11:23.681Z,33.08
2019-02-17T04:13:52.466Z,35.13
2019-02-17T04:16:21.222Z,34.10
2019-02-17T04:18:50.167Z,32.50
2019-02-17T04:21:18.942Z,35.55
2019-02-17T04:23:47.871Z,35.63
2019-02-17T04:26:16.631Z,34.90
2019-02-17T04:28:45.404Z,33.05
2019-02-17T04:31:15.322Z,34.90
2019-02-17T04:33:44.141Z,33.92
2019-02-17T04:36:12.947Z,34.03
2019-02-17T04:38:41.698Z,35.05
2019-02-17T04:41:10.509Z,34.00
2019-02-17T04:43:39.299Z,34.45
2019-02-17T04:46:08.128Z,32.05
2019-02-17T04:48:36.845Z,34.38
2019-02-17T04:51:05.628Z,35.23
2019-02-17T04:53:34.369Z,35.75
2019-02-17T04:56:03.116Z,34.45
2019-02-17T04:58:31.856Z,34.38
2019-02-17T05:01:00.579Z,34.25
2019-02-17T05:03:29.361Z,32.40
2019-02-17T05:05:58.091Z,31.90
2019-02-17T05:08:26.835Z,32.95
2019-02-17T05:10:55.653Z,30.02
2019-02-17T05:13:24.350Z,30.20
2019-02-17T05:15:53.111Z,30.40
2019-02-17T05:18:21.897Z,31.07
2019-02-17T05:20:50.627Z,31.95
2019-02-17T05:23:19.519Z,30.10
2019-02-17T05:25:48.328Z,31.30
2019-02-17T05:28:17.042Z,30.17
2019-02-17T05:30:53.000Z,32.83
2019-02-17T05:33:16.238Z,32.17
2019-02-17T05:35:44.981Z,30.77
2019-02-17T05:38:13.752Z,30.70
2019-02-17T05:40:42.494Z,30.62
2019-02-17T05:43:11.221Z,30.43
2019-02-17T05:45:40.010Z,30.08
2019-02-17T05:48:08.786Z,31.57
2019-02-17T05:50:37.566Z,30.40
2019-02-17T05:53:06.410Z,30.70
2019-02-17T05:55:36.794Z,30.72
2019-02-17T05:58:05.541Z,30.23
2019-02-17T06:00:36.398Z,28.80
2019-02-17T06:03:05.729Z,30.50
2019-02-17T06:05:34.513Z,30.48
2019-02-17T06:08:03.269Z,31.15
2019-02-17T06:10:32.369Z,30.92
2019-02-17T06:13:01.091Z,28.45
2019-02-17T06:15:29.910Z,29.52
2019-02-17T06:18:00.076Z,28.70
2019-02-17T06:20:28.994Z,29.82
2019-02-17T06:22:58.128Z,28.07
2019-02-17T06:25:26.891Z,29.85
2019-02-17T06:27:55.614Z,29.05
2019-02-17T06:30:24.394Z,29.48
2019-02-17T06:32:53.117Z,29.15
2019-02-17T06:35:21.890Z,28.92
2019-02-17T06:37:50.630Z,29.80
2019-02-17T06:40:19.357Z,29.50
2019-02-17T06:42:48.171Z,29.00
2019-02-17T06:45:19.545Z,27.30
2019-02-17T06:47:47.480Z,30.08
2019-02-17T06:50:16.225Z,27.65
2019-02-17T06:52:44.970Z,27.87
2019-02-17T06:55:26.261Z,29.32
2019-02-17T06:58:14.375Z,27.58
2019-02-17T07:00:53.542Z,29.45
2019-02-17T07:03:22.330Z,29.07
2019-02-17T07:06:02.524Z,29.15
2019-02-17T07:08:31.266Z,29.77
2019-02-17T07:11:00.036Z,31.60
2019-02-17T07:13:28.825Z,29.18
2019-02-17T07:15:59.733Z,29.63
2019-02-17T07:18:28.584Z,29.70
2019-02-17T07:20:57.325Z,29.40
2019-02-17T07:23:27.374Z,30.90
2019-02-17T07:25:56.182Z,29.75
2019-02-17T07:28:24.943Z,29.63
2019-02-17T07:30:56.776Z,31.12
2019-02-17T07:33:29.360Z,29.57
2019-02-17T07:35:59.214Z,28.73
2019-02-17T07:38:27.976Z,28.23
2019-02-17T07:40:56.718Z,29.67
2019-02-17T07:43:25.694Z,28.55
2019-02-17T07:45:54.482Z,28.60
2019-02-17T07:48:23.294Z,30.00
2019-02-17T07:50:52.204Z,27.42
2019-02-17T07:53:23.383Z,29.23
2019-02-17T07:55:52.308Z,28.67
2019-02-17T07:58:21.172Z,26.60
2019-02-17T08:00:50.062Z,27.75
2019-02-17T08:03:18.882Z,28.52
2019-02-17T08:05:47.862Z,27.75
2019-02-17T08:08:16.715Z,28.07
2019-02-17T08:10:45.519Z,25.55
2019-02-17T08:13:14.286Z,27.37
2019-02-17T08:15:43.105Z,26.48
2019-02-17T08:18:12.059Z,26.50
2019-02-17T08:20:40.918Z,26.42
2019-02-17T08:23:09.748Z,28.52
2019-02-17T08:25:38.582Z,28.47
2019-02-17T08:28:09.245Z,27.40
2019-02-17T08:30:39.757Z,26.10
2019-02-17T08:33:08.572Z,26.87
2019-02-17T08:35:37.385Z,27.95
2019-02-17T08:38:07.348Z,27.70
2019-02-17T08:40:36.106Z,27.07
2019-02-17T08:43:04.925Z,27.58
2019-02-17T08:45:33.707Z,25.68
2019-02-17T08:48:02.585Z,24.55
2019-02-17T08:50:31.383Z,26.15
2019-02-17T08:53:00.167Z,26.42
2019-02-17T08:55:29.145Z,25.75
2019-02-17T08:57:57.867Z,24.10
2019-02-17T09:00:26.634Z,24.87
2019-02-17T09:02:55.510Z,24.02
2019-02-17T09:05:24.267Z,23.85
2019-02-17T09:07:53.101Z,24.35
2019-02-17T09:10:22.075Z,23.65
2019-02-17T09:12:50.865Z,22.42
2019-02-17T09:15:19.638Z,23.27
2019-02-17T09:17:48.476Z,24.12
2019-02-17T09:20:17.222Z,23.57
2019-02-17T09:22:45.942Z,22.62
2019-02-17T09:25:14.833Z,22.67
2019-02-17T09:27:46.592Z,21.62
2019-02-17T09:30:16.223Z,22.50
2019-02-17T09:32:44.975Z,23.20
2019-02-17T09:35:13.801Z,21.67
2019-02-17T09:37:42.625Z,22.07
2019-02-17T09:40:11.730Z,22.07
2019-02-17T09:42:40.654Z,21.60
2019-02-17T09:45:11.137Z,26.00
2019-02-17T09:47:40.001Z,22.23
2019-02-17T09:50:13.486Z,21.77
2019-02-17T09:52:43.600Z,21.87
2019-02-17T09:55:12.475Z,21.40
2019-02-17T09:57:41.418Z,21.50
2019-02-17T10:00:11.401Z,20.17
2019-02-17T10:02:40.238Z,22.00
2019-02-17T10:05:09.118Z,20.70
2019-02-17T10:07:37.941Z,21.07
2019-02-17T10:10:09.121Z,21.23
2019-02-17T10:12:37.961Z,20.37
2019-02-17T10:15:10.458Z,19.27
2019-02-17T10:17:40.218Z,21.37
2019-02-17T10:20:09.659Z,20.33
2019-02-17T10:22:38.395Z,20.17
2019-02-17T10:25:07.162Z,20.40
2019-02-17T10:27:36.037Z,21.10
2019-02-17T10:30:05.372Z,19.60
2019-02-17T10:32:38.407Z,20.87
2019-02-17T10:35:05.950Z,19.17
2019-02-17T10:37:34.847Z,19.97
2019-02-17T10:40:03.930Z,19.17
2019-02-17T10:42:32.662Z,21.13
2019-02-17T10:45:01.411Z,18.83
2019-02-17T10:47:30.551Z,19.47
2019-02-17T10:50:00.556Z,19.97
2019-02-17T10:52:29.348Z,19.27
2019-02-17T10:54:58.426Z,19.57
2019-02-17T10:57:27.290Z,19.03
2019-02-17T10:59:56.749Z,19.17
2019-02-17T11:02:47.472Z,19.90
2019-02-17T11:05:15.858Z,18.10
2019-02-17T11:07:44.809Z,19.23
2019-02-17T11:10:13.787Z,19.17
2019-02-17T11:12:43.206Z,18.63
2019-02-17T11:15:14.885Z,18.73
2019-02-17T11:17:43.638Z,18.27
2019-02-17T11:20:12.390Z,21.07
2019-02-17T11:22:41.106Z,19.30
2019-02-17T11:25:10.012Z,19.47
2019-02-17T11:27:38.798Z,19.63
2019-02-17T11:30:09.822Z,19.50
2019-02-17T11:32:38.707Z,19.27
2019-02-17T11:35:07.577Z,18.70
2019-02-17T11:37:36.323Z,17.80
2019-02-17T11:40:06.192Z,19.73
2019-02-17T11:42:34.938Z,18.33
2019-02-17T11:45:06.538Z,19.90
2019-02-17T11:47:35.366Z,19.27
2019-02-17T11:50:04.234Z,20.00
2019-02-17T11:52:33.094Z,19.43
2019-02-17T11:55:02.590Z,19.63
2019-02-17T11:57:31.418Z,19.97
2019-02-17T12:00:00.307Z,19.40
2019-02-17T12:02:29.148Z,19.73
2019-02-17T12:04:57.918Z,19.50
2019-02-17T12:07:26.735Z,19.93
2019-02-17T12:09:55.600Z,20.70
2019-02-17T12:12:24.491Z,19.43
2019-02-17T12:14:56.439Z,20.20
2019-02-17T12:17:25.178Z,19.90
2019-02-17T12:19:57.301Z,18.80
2019-02-17T12:22:40.480Z,20.67
2019-02-17T12:25:16.728Z,20.20
2019-02-17T12:27:52.802Z,19.67
2019-02-17T12:30:23.859Z,19.47
2019-02-17T12:32:52.822Z,19.07
2019-02-17T12:35:22.734Z,19.30
2019-02-17T12:37:51.597Z,19.73
2019-02-17T12:40:20.441Z,19.13
2019-02-17T12:42:51.026Z,19.93
2019-02-17T12:45:19.953Z,19.63
2019-02-17T12:47:57.525Z,19.57
2019-02-17T12:50:19.235Z,19.73
2019-02-17T12:52:48.073Z,20.07
2019-02-17T12:55:24.110Z,18.93
2019-02-17T12:57:53.292Z,19.73
2019-02-17T13:00:22.078Z,19.50
2019-02-17T13:02:50.846Z,20.93
2019-02-17T13:05:19.592Z,19.70
2019-02-17T13:07:48.435Z,19.90
2019-02-17T13:10:17.247Z,19.70
2019-02-17T13:12:48.338Z,20.37
2019-02-17T13:15:17.071Z,20.00
2019-02-17T13:17:47.045Z,20.47
2019-02-17T13:20:15.812Z,19.50
2019-02-17T13:22:45.879Z,20.47
2019-02-17T13:25:14.851Z,19.07
2019-02-17T13:27:43.583Z,20.53
2019-02-17T13:30:31.734Z,20.70
2019-02-17T13:33:02.162Z,21.07
2019-02-17T13:35:30.939Z,21.20
2019-02-17T13:37:59.854Z,19.77
2019-02-17T13:40:28.597Z,20.23
2019-02-17T13:42:59.697Z,20.10
2019-02-17T13:45:28.922Z,20.40
2019-02-17T13:47:57.854Z,19.70
2019-02-17T13:50:28.361Z,19.77
2019-02-17T13:52:57.189Z,18.80
2019-02-17T13:55:26.022Z,19.13
2019-02-17T13:57:54.911Z,19.23
2019-02-17T14:00:24.027Z,18.27
2019-02-17T14:02:52.797Z,16.70
2019-02-17T14:05:21.571Z,19.37
2019-02-17T14:07:54.422Z,16.43
2019-02-17T14:10:23.191Z,17.13
2019-02-17T14:12:52.023Z,18.43
2019-02-17T14:15:20.798Z,17.30
2019-02-17T14:17:49.518Z,16.60
2019-02-17T14:20:18.870Z,16.20
2019-02-17T14:22:47.580Z,15.20
2019-02-17T14:25:16.408Z,16.17
2019-02-17T14:27:45.258Z,15.17
2019-02-17T14:30:14.124Z,14.70
2019-02-17T14:32:42.923Z,14.30
2019-02-17T14:35:11.678Z,14.10
2019-02-17T14:37:40.466Z,14.40
2019-02-17T14:40:09.378Z,14.33
2019-02-17T14:42:38.114Z,14.07
2019-02-17T14:45:07.087Z,14.23
2019-02-17T14:47:37.532Z,14.20
2019-02-17T14:50:06.543Z,13.23
2019-02-17T14:52:35.355Z,13.90
2019-02-17T14:55:07.786Z,13.40
2019-02-17T14:57:39.094Z,13.70
2019-02-17T15:00:08.381Z,14.23
2019-02-17T15:02:37.130Z,14.37
2019-02-17T15:05:06.242Z,13.87
2019-02-17T15:07:35.163Z,13.47
2019-02-17T15:10:04.595Z,14.00
2019-02-17T15:12:33.670Z,14.07
2019-02-17T15:15:02.401Z,14.07
2019-02-17T15:17:31.382Z,13.77
2019-02-17T15:20:00.300Z,13.53
2019-02-17T15:22:29.535Z,14.70
2019-02-17T15:24:58.474Z,12.97
2019-02-17T15:27:27.197Z,13.53
2019-02-17T15:29:56.675Z,13.20
2019-02-17T15:32:25.643Z,13.20
2019-02-17T15:34:54.642Z,13.43
2019-02-17T15:37:23.653Z,14.33
2019-02-17T15:39:52.699Z,12.97
2019-02-17T15:42:21.602Z,13.07
2019-02-17T15:44:51.706Z,13.67
2019-02-17T15:47:22.247Z,13.50
2019-02-17T15:49:51.314Z,13.07
2019-02-17T15:52:21.541Z,12.97
2019-02-17T15:54:50.375Z,13.43
2019-02-17T15:57:19.187Z,12.53
2019-02-17T15:59:49.485Z,13.37
2019-02-17T16:02:18.222Z,13.97
2019-02-17T16:04:47.366Z,13.20
2019-02-17T16:07:16.485Z,13.97
2019-02-17T16:09:47.971Z,13.37
2019-02-17T16:12:18.318Z,13.90
2019-02-17T16:14:47.704Z,13.43
2019-02-17T16:17:19.475Z,14.43
2019-02-17T16:19:55.890Z,14.67
2019-02-17T16:22:25.830Z,13.43
2019-02-17T16:24:56.266Z,13.20
2019-02-17T16:27:27.422Z,13.83
2019-02-17T16:29:56.312Z,14.00
2019-02-17T16:32:25.107Z,13.40
2019-02-17T16:34:54.056Z,13.57
2019-02-17T16:37:24.588Z,13.97
2019-02-17T16:39:53.697Z,14.33
2019-02-17T16:42:23.709Z,14.20
2019-02-17T16:44:52.524Z,13.23
2019-02-17T16:47:21.392Z,13.83
2019-02-17T16:49:50.473Z,13.07
2019-02-17T16:52:19.930Z,12.10
2019-02-17T16:54:48.832Z,11.37
2019-02-17T16:57:17.839Z,11.07
2019-02-17T16:59:59.118Z,10.63
2019-02-17T17:02:28.643Z,11.47
2019-02-17T17:04:59.931Z,11.77
2019-02-17T17:07:28.761Z,11.43
2019-02-17T17:09:57.770Z,12.77
2019-02-17T17:12:26.630Z,11.30
2019-02-17T17:14:55.430Z,11.63
2019-02-17T17:17:24.189Z,10.93
2019-02-17T17:19:53.663Z,10.57
2019-02-17T17:22:22.852Z,11.20
2019-02-17T17:24:52.542Z,11.03
2019-02-17T17:27:21.302Z,12.07
2019-02-17T17:29:50.067Z,11.70
2019-02-17T17:32:18.953Z,12.00
2019-02-17T17:34:58.396Z,11.93
2019-02-17T17:37:19.007Z,11.40
2019-02-17T17:39:47.851Z,12.63
2019-02-17T17:42:16.703Z,12.30
2019-02-17T17:44:45.474Z,12.67
2019-02-17T17:47:14.344Z,12.40
2019-02-17T17:49:43.152Z,13.10
2019-02-17T17:52:13.893Z,11.90
2019-02-17T17:54:43.154Z,11.93
2019-02-17T17:57:12.381Z,12.87
2019-02-17T17:59:41.648Z,12.23
2019-02-17T18:02:11.680Z,11.77
2019-02-17T18:04:40.515Z,11.63
2019-02-17T18:07:09.298Z,13.07
2019-02-17T18:09:38.162Z,12.80
2019-02-17T18:12:06.975Z,11.83
2019-02-17T18:14:36.042Z,12.60
2019-02-17T18:17:05.111Z,12.50
2019-02-17T18:19:34.062Z,12.27
2019-02-17T18:22:03.124Z,12.43
2019-02-17T18:24:32.430Z,13.53
2019-02-17T18:27:01.326Z,12.70
2019-02-17T18:29:30.486Z,12.17
2019-02-17T18:31:59.613Z,11.77
2019-02-17T18:34:28.422Z,13.07
2019-02-17T18:36:57.307Z,13.67
2019-02-17T18:39:26.196Z,12.70
2019-02-17T18:41:55.002Z,11.93
2019-02-17T18:44:23.910Z,11.80
2019-02-17T18:46:53.145Z,12.20
2019-02-17T18:49:26.737Z,11.30
2019-02-17T18:51:55.507Z,12.27
2019-02-17T18:54:24.305Z,11.73
2019-02-17T18:56:53.109Z,12.07
2019-02-17T18:59:21.966Z,12.20
2019-02-17T19:01:51.454Z,11.70
2019-02-17T19:04:20.211Z,11.10
2019-02-17T19:06:49.006Z,12.30
2019-02-17T19:09:18.058Z,12.00
2019-02-17T19:11:47.342Z,11.60
2019-02-17T19:14:16.229Z,11.97
2019-02-17T19:16:45.114Z,11.40
2019-02-17T19:19:13.970Z,12.30
2019-02-17T19:21:43.174Z,12.50
2019-02-17T19:24:16.884Z,11.57
2019-02-17T19:26:47.999Z,13.13
2019-02-17T19:29:20.496Z,12.20
2019-02-17T19:31:53.382Z,13.87
2019-02-17T19:34:22.324Z,12.60
2019-02-17T19:36:52.553Z,12.53
2019-02-17T19:39:23.496Z,12.63
2019-02-17T19:41:52.609Z,12.60
2019-02-17T19:44:21.953Z,12.50
2019-02-17T19:46:52.003Z,12.37
2019-02-17T19:49:23.554Z,11.83
2019-02-17T19:51:52.319Z,11.97
2019-02-17T19:54:21.201Z,12.00
2019-02-17T19:56:50.344Z,11.83
2019-02-17T19:59:19.232Z,12.30
2019-02-17T20:01:48.167Z,12.97
2019-02-17T20:04:23.710Z,12.40
2019-02-17T20:06:52.488Z,12.17
2019-02-17T20:09:21.434Z,12.80
2019-02-17T20:11:52.360Z,11.43
2019-02-17T20:14:21.610Z,11.55
2019-02-17T20:16:51.385Z,12.10
2019-02-17T20:19:21.846Z,11.77
2019-02-17T20:21:50.846Z,12.10
2019-02-17T20:24:19.779Z,12.83
2019-02-17T20:26:49.158Z,12.88
2019-02-17T20:29:18.027Z,12.10
2019-02-17T20:31:47.049Z,11.40
2019-02-17T20:34:15.938Z,13.83
2019-02-17T20:36:44.759Z,13.37
2019-02-17T20:39:13.565Z,17.10
2019-02-17T20:41:45.047Z,13.60
2019-02-17T20:44:13.951Z,15.38
2019-02-17T20:46:43.455Z,14.27
2019-02-17T20:49:12.491Z,14.93
2019-02-17T20:51:41.484Z,12.30
2019-02-17T20:54:10.394Z,14.10
2019-02-17T20:56:39.442Z,12.30
2019-02-17T20:59:09.047Z,12.98
2019-02-17T21:01:38.551Z,13.43
2019-02-17T21:04:09.692Z,12.75
2019-02-17T21:06:39.689Z,13.47
2019-02-17T21:09:10.738Z,13.10
2019-02-17T21:11:39.904Z,13.10
2019-02-17T21:14:09.275Z,12.70
2019-02-17T21:16:38.170Z,12.37
2019-02-17T21:19:06.935Z,11.73
2019-02-17T21:21:36.427Z,13.70
2019-02-17T21:24:05.600Z,12.40
2019-02-17T21:26:34.430Z,13.87
2019-02-17T21:29:03.899Z,11.60
2019-02-17T21:31:32.876Z,12.43
2019-02-17T21:34:04.234Z,12.53
2019-02-17T21:36:33.072Z,12.30
2019-02-17T21:39:02.089Z,12.25
2019-02-17T21:41:36.725Z,12.90
2019-02-17T21:44:06.407Z,12.63
2019-02-17T21:46:35.256Z,12.25
2019-02-17T21:49:04.830Z,12.15
2019-02-17T21:51:34.654Z,12.45
2019-02-17T21:54:03.655Z,12.23
2019-02-17T21:56:32.433Z,12.43
2019-02-17T21:59:01.462Z,14.05
2019-02-17T22:01:30.253Z,14.03
2019-02-17T22:04:01.035Z,13.68
2019-02-17T22:06:33.530Z,12.50
2019-02-17T22:09:00.250Z,13.03
2019-02-17T22:11:29.930Z,12.87
2019-02-17T22:13:58.851Z,14.73
2019-02-17T22:16:27.688Z,14.53
2019-02-17T22:18:56.663Z,13.20
2019-02-17T22:21:25.587Z,12.95
2019-02-17T22:23:54.684Z,13.55
2019-02-17T22:26:23.909Z,12.18
2019-02-17T22:28:52.688Z,13.40
2019-02-17T22:31:21.423Z,13.58
2019-02-17T22:33:50.307Z,12.98
2019-02-17T22:36:19.112Z,13.85
2019-02-17T22:38:48.026Z,13.80
2019-02-17T22:41:16.838Z,15.65
2019-02-17T22:43:45.642Z,17.40
2019-02-17T22:46:15.809Z,24.20
2019-02-17T22:48:44.646Z,20.17
2019-02-17T22:51:13.374Z,24.65
2019-02-17T22:53:43.995Z,24.52
2019-02-17T22:56:12.659Z,19.05
2019-02-17T22:58:41.504Z,15.90
2019-02-17T23:01:13.990Z,15.58
2019-02-17T23:03:42.919Z,14.95
2019-02-17T23:06:11.738Z,14.40
2019-02-17T23:08:40.473Z,16.40
2019-02-17T23:11:09.453Z,15.08
2019-02-17T23:13:38.307Z,15.03
2019-02-17T23:16:07.330Z,15.20
2019-02-17T23:18:36.198Z,15.30
2019-02-17T23:21:07.046Z,15.40
2019-02-17T23:23:35.826Z,16.20
2019-02-17T23:26:04.651Z,17.05
2019-02-17T23:28:33.402Z,16.20
2019-02-17T23:31:02.138Z,15.58
2019-02-17T23:33:31.029Z,16.65
2019-02-17T23:35:59.755Z,16.12
2019-02-17T23:38:29.210Z,14.63
2019-02-17T23:40:58.645Z,17.05
2019-02-17T23:43:27.945Z,15.75
2019-02-17T23:45:56.794Z,15.40
2019-02-17T23:48:26.339Z,15.83
2019-02-17T23:50:55.098Z,15.68
2019-02-17T23:53:23.958Z,16.25
2019-02-17T23:55:52.714Z,16.48
2019-02-17T23:58:21.418Z,15.15
